Terminal Aerodrome Forecast
Issued by NWS

Home | Current Version | Previous Version | Text Only | Print | Product List | Glossary On
Versions: 1 2 3 4 5 6 7 8 9 10 11 12 13 14 15 16 17 18 19 20 21 22 23 24 25 26 27 28 29 30 31 32 33 34 35 36 37 38
000
FTUS44 KHGX 232350 RRA
TAFSGR
TAF
KSGR 232350Z 2400/2424 14015KT P6SM SKC
     FM240200 16007KT P6SM FEW010
     FM240700 17004KT 4SM BR SCT010
      TEMPO 2409/2412 2SM BR OVC005
     FM241500 21003KT P6SM SCT015
     FM242100 32008G14KT P6SM FEW250=

USA.gov is the U.S. government's official web portal to all federal, state and local government web resources and services.